Time;durP1;ratioP1;P1;durP2;ratioP2;P2;SDS_P1;SDS_P2;PMS_P1;PMS_P2;Temp;Humidity;BMP_temperature;BMP_pressure;BME280_temperature;BME280_humidity;BME280_pressure;Samples;Min_cycle;Max_cycle;Signal;HPM_P1;HPM_P2
2021/08/25 00:00:12;;;;;;;5.22;1.70;;;11.60;99.90;;;10.00;90.28;102234.94;2567837;30;137059;-41
2021/08/25 00:02:40;;;;;;;4.78;1.98;;;11.60;99.90;;;9.97;90.38;102235.28;2568751;30;137217;-41
2021/08/25 00:05:09;;;;;;;;;;;11.50;99.90;;;9.93;90.50;102228.47;2567459;30;137748;-41
2021/08/25 00:07:37;;;;;;;3.83;2.00;;;11.50;99.90;;;9.91;90.47;102230.50;2567763;30;137302;-41
2021/08/25 00:10:08;;;;;;;4.03;1.73;;;11.40;99.90;;;9.85;90.65;102229.34;2568170;30;138504;-41
2021/08/25 00:12:35;;;;;;;5.68;2.00;;;11.40;99.90;;;9.81;91.00;102219.78;2566156;30;137260;-41
2021/08/25 00:15:06;;;;;;;6.20;2.00;;;11.30;99.90;;;9.75;90.77;102225.94;2568829;30;138227;-40
2021/08/25 00:17:35;;;;;;;4.82;2.00;;;11.30;99.90;;;9.71;91.08;102227.31;2568198;30;137471;-42
2021/08/25 00:20:05;;;;;;;5.25;1.90;;;11.20;99.90;;;9.69;91.33;102227.50;2567606;30;138915;-41
2021/08/25 00:22:33;;;;;;;4.28;1.92;;;11.20;99.90;;;9.62;91.10;102221.88;2567107;30;136816;-41
2021/08/25 00:25:04;;;;;;;5.50;2.20;;;11.10;99.90;;;9.58;91.48;102222.38;2564278;30;139561;-41
2021/08/25 00:27:32;;;;;;;9.75;2.50;;;11.10;99.90;;;9.54;91.72;102218.31;2567408;30;137502;-41
2021/08/25 00:29:59;;;;;;;3.47;1.90;;;11.10;99.90;;;9.53;91.51;102216.59;2565040;30;138554;-40
2021/08/25 00:32:27;;;;;;;6.20;2.25;;;11.00;99.90;;;9.48;91.85;102209.81;2568835;30;137485;-42
2021/08/25 00:34:54;;;;;;;5.55;2.00;;;11.00;99.90;;;9.49;92.11;102202.47;2567313;30;138233;-41
2021/08/25 00:37:22;;;;;;;4.20;1.80;;;11.00;99.90;;;9.46;92.01;102205.53;2566081;30;137505;-41
2021/08/25 00:39:49;;;;;;;4.43;1.92;;;11.00;99.90;;;9.46;92.40;102205.53;2568687;30;137869;-41
2021/08/25 00:42:17;;;;;;;3.03;1.63;;;11.00;99.90;;;9.42;92.24;102199.59;2567471;30;136709;-41
2021/08/25 00:44:46;;;;;;;3.88;1.90;;;11.00;99.90;;;9.42;92.47;102196.00;2566973;30;138212;-40
2021/08/25 00:47:15;;;;;;;5.22;2.13;;;11.00;99.90;;;9.41;92.45;102202.47;2567047;30;137126;-40
2021/08/25 00:49:46;;;;;;;3.47;1.80;;;10.90;99.90;;;9.39;92.31;102188.19;2568307;30;138766;-41
2021/08/25 00:52:13;;;;;;;5.28;2.00;;;10.90;99.90;;;9.35;92.24;102191.25;2567225;30;137578;-40
2021/08/25 00:54:43;;;;;;;4.55;2.30;;;10.90;99.90;;;9.35;92.29;102184.94;2566370;30;138951;-41
2021/08/25 00:57:12;;;;;;;5.00;2.20;;;10.90;99.90;;;9.33;92.35;102187.00;2567746;30;137029;-41
2021/08/25 00:59:39;;;;;;;3.60;1.75;;;10.90;99.90;;;9.31;92.62;102184.44;2567828;30;137251;-41
2021/08/25 01:02:37;;;;;;;3.03;1.75;;;10.90;99.90;;;9.30;92.96;102190.94;2567032;30;137094;-41
2021/08/25 01:05:08;;;;;;;4.47;1.98;;;10.90;99.90;;;9.24;92.08;102175.25;2564068;30;138560;-41
2021/08/25 01:07:42;;;;;;;3.67;1.92;;;10.80;99.90;;;9.27;92.24;102187.69;2567576;30;138379;-41
2021/08/25 01:10:26;;;;;;;6.55;2.00;;;10.80;99.90;;;9.25;92.24;102187.00;2567958;30;137416;-42
2021/08/25 01:13:14;;;;;;;4.05;1.88;;;10.80;99.90;;;9.20;92.21;102182.91;2568112;30;136655;-40
2021/08/25 01:15:43;;;;;;;4.03;1.90;;;10.80;99.90;;;9.18;91.96;102181.38;2567790;30;138217;-41
2021/08/25 01:18:17;;;;;;;3.92;1.90;;;10.70;99.90;;;9.16;92.28;102177.97;2568624;30;138048;-43
2021/08/25 01:20:48;;;;;;;4.88;2.00;;;10.70;99.90;;;9.14;92.43;102175.41;2568244;30;137211;-41
2021/08/25 01:23:21;;;;;;;3.70;1.70;;;10.70;99.90;;;9.14;92.56;102178.13;2568877;30;137774;-41
2021/08/25 01:25:54;;;;;;;4.70;2.05;;;10.70;99.90;;;9.11;92.59;102169.47;2568233;30;138340;-41
2021/08/25 01:28:27;;;;;;;3.47;1.80;;;10.70;99.90;;;9.07;92.65;102166.22;2568386;30;137567;-41
2021/08/25 01:30:55;;;;;;;6.28;1.92;;;10.70;99.90;;;9.10;92.98;102167.75;2569910;30;138393;-41
2021/08/25 01:33:24;;;;;;;;;;;10.70;99.90;;;9.07;93.12;102169.81;2568795;30;136995;-40
2021/08/25 01:35:51;;;;;;;5.57;2.08;;;10.60;99.90;;;9.10;93.30;102167.75;2567884;30;136762;-41
2021/08/25 01:38:41;;;;;;;4.63;1.90;;;10.60;99.90;;;9.07;93.49;102169.81;2567832;30;137300;-40
2021/08/25 01:41:09;;;;;;;5.80;2.20;;;10.60;99.90;;;9.07;93.42;102175.25;2568128;30;137605;-40
2021/08/25 01:43:37;;;;;;;3.92;2.10;;;10.60;99.90;;;9.08;93.46;102167.94;2568349;30;136885;-41
2021/08/25 01:46:04;;;;;;;6.97;2.30;;;10.60;99.90;;;9.06;93.47;102167.25;2567928;30;138184;-41
2021/08/25 01:48:33;;;;;;;4.65;2.38;;;10.60;99.90;;;9.03;93.41;102171.19;2566828;30;137920;-40
2021/08/25 01:51:03;;;;;;;4.38;1.95;;;10.60;99.90;;;8.98;93.51;102164.53;2568795;30;138310;-40
2021/08/25 01:53:30;;;;;;;4.10;1.80;;;10.60;99.90;;;8.94;93.32;102171.34;2567456;30;137733;-41
2021/08/25 01:55:57;;;;;;;4.38;2.05;;;10.50;99.90;;;8.92;93.43;102161.47;2568909;30;138246;-41
2021/08/25 01:58:25;;;;;;;3.50;1.90;;;10.50;99.90;;;8.94;93.65;102161.28;2568670;30;136772;-41
2021/08/25 02:00:52;;;;;;;4.28;2.15;;;10.50;99.90;;;8.95;94.13;102153.97;2565357;30;138096;-40
2021/08/25 02:03:20;;;;;;;4.72;2.33;;;10.50;99.90;;;8.96;94.50;102156.50;2568378;30;137303;-40
2021/08/25 02:05:47;;;;;;;3.80;2.10;;;10.50;99.90;;;8.95;94.64;102148.53;2568979;30;138351;-40
2021/08/25 02:08:15;;;;;;;4.20;2.28;;;10.50;99.90;;;8.94;94.47;102155.00;2567601;30;138685;-40
2021/08/25 02:10:42;;;;;;;3.85;1.90;;;10.50;99.90;;;8.89;94.06;102150.06;2569802;30;138271;-41
2021/08/25 02:13:10;;;;;;;4.47;2.20;;;10.40;99.90;;;8.80;93.45;102140.19;2567999;30;138264;-40
2021/08/25 02:15:37;;;;;;;4.50;2.10;;;10.40;99.90;;;8.82;93.63;102147.16;2568594;30;138191;-41
2021/08/25 02:18:06;;;;;;;3.63;2.05;;;10.40;99.90;;;8.79;93.64;102139.31;2567556;30;137377;-40
2021/08/25 02:20:33;;;;;;;;;;;10.40;99.90;;;8.78;94.00;102145.78;2568598;30;138394;-41
2021/08/25 02:23:00;;;;;;;4.10;2.28;;;10.40;99.90;;;8.77;94.00;102131.34;2567807;30;137177;-41
2021/08/25 02:25:28;;;;;;;5.82;2.53;;;10.40;99.90;;;8.78;94.09;102137.63;2568407;30;138405;-41
2021/08/25 02:27:55;;;;;;;5.60;2.22;;;10.40;99.90;;;8.77;94.45;102131.34;2567873;30;137615;-40
2021/08/25 02:34:43;;;;;;;5.25;2.63;;;10.30;99.90;;;8.71;94.50;102129.28;2567453;30;136716;-40
2021/08/25 02:37:10;;;;;;;4.78;2.20;;;10.30;99.90;;;8.68;94.36;102135.06;2568136;30;137447;-41
2021/08/25 02:39:38;;;;;;;3.72;1.85;;;10.30;99.90;;;8.67;94.47;102133.34;2568286;30;137475;-41
2021/08/25 02:42:06;;;;;;;;;;;10.30;99.90;;;8.68;94.87;102126.06;2567511;30;138510;-40
2021/08/25 02:44:33;;;;;;;4.70;2.25;;;10.20;99.90;;;8.67;95.02;102127.91;2568671;30;137880;-41
2021/08/25 02:47:01;;;;;;;4.95;2.33;;;10.20;99.90;;;8.64;94.75;102125.53;2568037;30;138379;-41
2021/08/25 02:49:28;;;;;;;4.85;2.25;;;10.20;99.90;;;8.61;94.49;102129.44;2569338;30;137321;-40
2021/08/25 02:51:56;;;;;;;4.57;2.20;;;10.20;99.90;;;8.58;94.21;102118.88;2567338;30;138187;-40
2021/08/25 02:54:23;;;;;;;4.85;2.15;;;10.20;99.90;;;8.54;94.11;102122.13;2566697;30;137498;-40
2021/08/25 02:56:50;;;;;;;3.88;2.05;;;10.10;99.90;;;8.49;94.01;102118.03;2568576;30;139099;-40
2021/08/25 02:59:19;;;;;;;4.00;1.88;;;10.10;99.90;;;8.47;94.00;102114.56;2578982;30;138124;-38
2021/08/25 03:01:46;;;;;;;5.55;2.10;;;10.10;99.90;;;8.45;94.27;102116.63;2567566;30;137703;-38
2021/08/25 03:04:15;;;;;;;4.65;2.40;;;10.00;99.90;;;8.42;94.21;102113.41;2566913;30;138237;-39
2021/08/25 03:06:42;;;;;;;5.18;2.28;;;10.00;99.90;;;8.38;94.09;102110.16;2572019;30;138501;-39
2021/08/25 03:09:10;;;;;;;4.47;2.22;;;10.00;99.90;;;8.32;94.12;102103.50;2569700;30;137006;-38
2021/08/25 03:11:37;;;;;;;5.45;2.13;;;10.00;99.90;;;8.35;94.41;102105.91;2568347;30;138196;-39
2021/08/25 03:14:05;;;;;;;4.80;2.42;;;9.90;99.90;;;8.33;94.72;102105.19;2570203;30;137134;-38
2021/08/25 03:16:32;;;;;;;5.00;2.40;;;9.90;99.90;;;8.32;94.74;102108.09;2568235;30;137937;-38
2021/08/25 03:19:00;;;;;;;4.90;2.50;;;9.90;99.90;;;8.30;94.68;102099.25;2568473;30;137599;-38
2021/08/25 03:21:27;;;;;;;4.47;2.25;;;9.90;99.90;;;8.27;94.64;102092.28;2570366;30;139286;-39
2021/08/25 03:23:55;;;;;;;4.82;2.00;;;9.90;99.90;;;8.25;94.57;102093.47;2569488;30;137492;-37
2021/08/25 03:26:22;;;;;;;5.28;2.20;;;9.80;99.90;;;8.21;94.80;102090.22;2570922;30;137154;-38
2021/08/25 03:28:53;;;;;;;5.40;2.40;;;9.80;99.90;;;8.19;94.85;102087.66;2565953;30;139384;-38
2021/08/25 03:31:20;;;;;;;5.78;2.47;;;9.80;99.90;;;8.19;95.12;102084.09;2569616;30;139009;-38
2021/08/25 03:33:48;;;;;;;4.93;2.40;;;9.80;99.90;;;8.15;95.29;102080.03;2568785;30;137252;-38
2021/08/25 03:36:15;;;;;;;4.90;2.40;;;9.70;99.90;;;8.14;95.05;102075.59;2569270;30;138752;-38
2021/08/25 03:38:43;;;;;;;4.35;2.10;;;9.70;99.90;;;8.09;94.83;102078.81;2568262;30;137337;-39
2021/08/25 03:41:10;;;;;;;5.20;2.38;;;9.70;99.90;;;8.08;94.76;102074.41;2569760;30;137773;-38
2021/08/25 03:43:38;;;;;;;4.63;2.38;;;9.70;99.90;;;8.05;95.26;102081.00;2569361;30;137314;-38
2021/08/25 03:46:05;;;;;;;4.82;2.03;;;9.60;99.90;;;8.01;95.25;102082.34;2566638;30;138161;-39
2021/08/25 03:48:33;;;;;;;4.28;2.20;;;9.70;99.90;;;8.00;95.27;102080.66;2568815;30;137136;-38
2021/08/25 03:51:01;;;;;;;;;;;9.60;99.90;;;7.96;94.99;102073.00;2568984;30;138335;-38
2021/08/25 03:53:29;;;;;;;4.50;2.28;;;9.60;99.90;;;7.94;95.07;102075.88;2570134;30;137214;-38
2021/08/25 03:55:56;;;;;;;5.80;2.40;;;9.50;99.90;;;7.92;95.20;102081.47;2569724;30;137179;-38
2021/08/25 03:58:24;;;;;;;5.28;2.60;;;9.50;99.90;;;7.90;95.29;102078.06;2567530;30;137811;-38
2021/08/25 04:00:53;;;;;;;4.95;2.17;;;9.50;99.90;;;7.88;95.17;102080.09;2569845;30;138240;-38
2021/08/25 04:03:20;;;;;;;5.70;2.25;;;9.50;99.90;;;7.85;95.20;102077.72;2568571;30;137596;-38
2021/08/25 04:05:48;;;;;;;4.32;2.35;;;9.40;99.90;;;7.84;95.42;102080.59;2568713;30;139219;-39
2021/08/25 04:08:15;;;;;;;6.45;2.35;;;9.40;99.90;;;7.81;95.56;102073.63;2567883;30;137975;-38
2021/08/25 04:10:43;;;;;;;4.97;2.30;;;9.40;99.90;;;7.81;95.84;102078.19;2569358;30;138142;-38
2021/08/25 04:13:10;;;;;;;6.72;2.72;;;9.40;99.90;;;7.81;95.99;102076.34;2568727;30;137508;-38
2021/08/25 04:15:40;;;;;;;5.15;2.45;;;9.40;99.90;;;7.81;96.08;102081.78;2567419;30;137436;-39
2021/08/25 04:18:08;;;;;;;4.25;2.25;;;9.40;99.90;;;7.77;96.12;102074.97;2571663;30;137415;-38
2021/08/25 04:20:35;;;;;;;6.65;2.50;;;9.40;99.90;;;7.75;96.15;102077.00;2569952;30;137453;-39
2021/08/25 04:23:03;;;;;;;5.00;2.60;;;9.30;99.90;;;7.73;95.86;102076.31;2569606;30;136668;-38
2021/08/25 04:25:30;;;;;;;5.38;2.80;;;9.30;99.90;;;7.70;95.66;102074.75;2569475;30;136955;-39
2021/08/25 04:27:58;;;;;;;4.13;2.35;;;9.30;99.90;;;7.68;95.92;102081.34;2569890;30;138639;-38
2021/08/25 04:30:25;;;;;;;5.30;2.50;;;9.30;99.90;;;7.66;95.95;102075.25;2566178;30;138499;-38
2021/08/25 04:32:53;;;;;;;5.00;2.38;;;9.30;99.90;;;7.66;95.92;102075.25;2570593;30;137113;-38
2021/08/25 04:35:20;;;;;;;8.07;2.78;;;9.30;99.90;;;7.63;95.95;102071.84;2569881;30;137377;-38
2021/08/25 04:37:48;;;;;;;4.20;2.13;;;9.30;99.90;;;7.61;96.00;102068.44;2568732;30;138496;-39
2021/08/25 04:40:16;;;;;;;4.70;2.50;;;9.20;99.90;;;7.60;96.01;102077.59;2571903;30;138102;-38
2021/08/25 04:42:43;;;;;;;4.05;2.30;;;9.20;99.90;;;7.61;96.04;102078.47;2569366;30;137741;-38
2021/08/25 04:45:11;;;;;;;7.97;2.67;;;9.20;99.90;;;7.60;96.07;102072.16;2570167;30;137303;-39
2021/08/25 04:47:39;;;;;;;;;;;9.20;99.90;;;7.61;96.22;102068.44;2569153;30;136908;-38
2021/08/25 04:50:07;;;;;;;4.75;2.25;;;9.20;99.90;;;7.63;96.36;102069.13;2569333;30;137472;-38
2021/08/25 04:52:34;;;;;;;5.18;2.58;;;9.20;99.90;;;7.65;96.20;102070.81;2569700;30;136779;-38
2021/08/25 04:55:02;;;;;;;4.68;2.28;;;9.20;99.90;;;7.67;96.28;102069.66;2569135;30;138916;-39
2021/08/25 04:57:30;;;;;;;6.50;2.83;;;9.20;99.90;;;7.70;96.48;102068.50;2568580;30;138442;-38
2021/08/25 04:59:57;;;;;;;8.23;2.75;;;9.30;99.90;;;7.74;96.66;102067.97;2570903;30;137302;-39
2021/08/25 05:02:25;;;;;;;4.78;2.60;;;9.30;99.90;;;7.80;96.73;102069.19;2567913;30;137451;-38
2021/08/25 05:04:52;;;;;;;4.80;2.67;;;9.30;99.90;;;7.81;96.85;102065.47;2568703;30;137664;-38
2021/08/25 05:07:20;;;;;;;6.53;2.97;;;9.40;99.90;;;7.86;96.82;102068.53;2570360;30;137211;-38
2021/08/25 05:09:47;;;;;;;6.70;3.10;;;9.40;99.90;;;7.90;97.01;102064.47;2569399;30;139070;-38
2021/08/25 05:12:17;;;;;;;6.82;3.00;;;9.40;99.90;;;7.99;97.36;102065.34;2568948;30;137321;-38
2021/08/25 05:14:45;;;;;;;5.43;2.85;;;9.50;99.90;;;8.04;97.72;102057.56;2571135;30;138451;-38
2021/08/25 05:17:13;;;;;;;5.05;2.88;;;9.60;99.90;;;8.08;97.75;102060.81;2569705;30;138697;-39
2021/08/25 05:19:40;;;;;;;6.22;2.75;;;9.60;99.90;;;8.11;97.68;102059.63;2571249;30;138427;-38
2021/08/25 05:22:09;;;;;;;5.72;2.92;;;9.60;99.90;;;8.16;97.85;102059.97;2570177;30;137388;-38
2021/08/25 05:24:36;;;;;;;6.05;2.78;;;9.70;99.90;;;8.18;97.58;102050.63;2568652;30;139120;-38
2021/08/25 05:27:04;;;;;;;5.47;3.08;;;9.70;99.90;;;8.24;97.78;102043.69;2567936;30;138276;-38
2021/08/25 05:29:32;;;;;;;6.05;2.95;;;9.70;99.90;;;8.29;97.97;102056.78;2572066;30;138954;-38
2021/08/25 05:31:59;;;;;;;5.45;2.78;;;9.80;99.90;;;8.35;97.88;102065.13;2568266;30;137624;-38
2021/08/25 05:34:27;;;;;;;5.88;3.55;;;9.80;99.90;;;8.41;97.97;102066.31;2569003;30;137772;-39
2021/08/25 05:36:54;;;;;;;7.05;2.72;;;9.90;99.90;;;8.48;98.09;102061.88;2568570;30;138155;-38
2021/08/25 05:39:22;;;;;;;5.05;3.05;;;9.90;99.90;;;8.57;98.11;102067.38;2569772;30;138340;-38
2021/08/25 05:41:49;;;;;;;6.47;3.08;;;10.00;99.90;;;8.63;98.04;102064.84;2570493;30;136808;-39
2021/08/25 05:44:17;;;;;;;7.95;3.70;;;10.10;99.90;;;8.71;98.02;102071.31;2565775;30;137429;-38
2021/08/25 05:46:44;;;;;;;6.32;3.15;;;10.10;99.90;;;8.78;97.92;102062.28;2569835;30;138156;-39
2021/08/25 05:49:12;;;;;;;5.68;3.20;;;10.20;99.90;;;8.88;97.84;102066.72;2569538;30;139156;-38
2021/08/25 05:51:40;;;;;;;6.60;2.92;;;10.30;99.90;;;8.98;97.97;102066.53;2568831;30;136932;-38
2021/08/25 05:54:09;;;;;;;6.90;3.88;;;10.40;99.90;;;9.07;97.96;102066.34;2568816;30;137401;-39
2021/08/25 05:56:36;;;;;;;6.10;3.75;;;10.50;99.90;;;9.19;98.09;102060.53;2570606;30;138068;-39
2021/08/25 05:59:04;;;;;;;9.07;4.22;;;10.60;99.90;;;9.31;98.06;102063.75;2571812;30;139162;-39
2021/08/25 06:01:31;;;;;;;6.68;3.63;;;10.70;99.90;;;9.43;97.96;102059.66;2569890;30;137605;-38
2021/08/25 06:03:59;;;;;;;6.00;3.67;;;10.80;99.90;;;9.58;97.97;102059.78;2569666;30;138493;-39
2021/08/25 06:06:36;;;;;;;6.93;4.20;;;10.90;99.90;;;9.73;97.79;102053.56;2570159;30;138105;-38
2021/08/25 06:09:04;;;;;;;7.50;4.45;;;11.00;99.90;;;9.99;97.44;102063.34;2569582;30;138358;-39
2021/08/25 06:11:36;;;;;;;9.10;4.63;;;11.20;99.90;;;10.20;96.93;102060.84;2569776;30;138450;-38
2021/08/25 06:14:04;;;;;;;8.50;4.68;;;11.40;99.90;;;10.44;96.82;102063.59;2569952;30;138530;-38
2021/08/25 06:16:31;;;;;;;8.40;4.85;;;11.60;99.90;;;10.66;96.71;102059.19;2569092;30;137647;-38
2021/08/25 06:18:59;;;;;;;10.10;4.93;;;11.80;99.90;;;10.87;96.30;102060.34;2569703;30;138392;-38
2021/08/25 06:21:27;;;;;;;10.45;5.70;;;12.00;99.90;;;11.08;96.05;102059.66;2568307;30;137575;-39
2021/08/25 06:23:55;;;;;;;10.48;4.82;;;12.20;99.90;;;11.26;95.52;102070.25;2569467;30;138452;-37
2021/08/25 06:26:23;;;;;;;9.20;4.75;;;12.30;99.90;;;11.45;94.97;102068.84;2570110;30;137275;-39
2021/08/25 06:28:50;;;;;;;9.73;4.53;;;12.50;99.90;;;11.65;94.90;102060.06;2570899;30;139374;-39
2021/08/25 06:31:18;;;;;;;9.65;5.10;;;12.70;99.90;;;11.87;94.63;102069.19;2569086;30;137295;-39
2021/08/25 06:33:45;;;;;;;9.32;4.88;;;12.90;99.90;;;12.08;93.58;102068.44;2565979;38;137282;-39
2021/08/25 06:36:13;;;;;;;9.30;4.85;;;13.10;99.90;;;12.28;92.41;102056.84;2569143;30;137175;-38
2021/08/25 06:38:40;;;;;;;10.88;4.85;;;13.30;99.90;;;12.42;91.17;102060.59;2567505;30;138322;-39
2021/08/25 06:41:08;;;;;;;9.05;4.38;;;13.40;99.90;;;12.64;90.67;102063.31;2569469;30;137568;-39
2021/08/25 06:43:36;;;;;;;10.43;4.00;;;13.60;99.90;;;12.83;88.51;102063.72;2567939;30;139134;-39
2021/08/25 06:46:03;;;;;;;8.25;4.13;;;13.80;99.90;;;12.98;87.01;102061.72;2568659;30;137545;-38
2021/08/25 06:48:31;;;;;;;8.65;4.40;;;13.90;99.90;;;13.13;84.59;102056.16;2567089;30;139266;-39
2021/08/25 06:50:59;;;;;;;;;;;14.10;99.90;;;13.33;82.28;102067.25;2570704;30;138223;-39
2021/08/25 06:53:27;;;;;;;10.00;4.00;;;14.30;99.90;;;13.52;82.54;102067.59;2568646;30;138547;-39
2021/08/25 06:55:55;;;;;;;8.02;3.42;;;14.40;99.90;;;13.67;80.56;102062.00;2569389;30;137002;-39
2021/08/25 06:58:24;;;;;;;7.18;3.90;;;14.60;99.90;;;13.84;81.46;102059.78;2568474;30;139186;-39
2021/08/25 07:00:52;;;;;;;6.32;3.38;;;14.70;99.90;;;14.03;81.58;102057.28;2570281;30;137754;-41
2021/08/25 07:03:20;;;;;;;;;;;14.90;99.90;;;14.22;81.21;102059.25;2570891;30;138266;-39
2021/08/25 07:05:48;;;;;;;7.80;3.05;;;15.10;99.90;;;14.40;80.61;102060.56;2569304;30;137789;-39
2021/08/25 07:08:17;;;;;;;7.88;3.70;;;15.30;99.90;;;14.57;81.13;102060.16;2571334;30;137819;-39
2021/08/25 07:10:44;;;;;;;7.13;4.00;;;15.40;99.90;;;14.65;78.97;102059.97;2570090;30;136961;-39
2021/08/25 07:13:12;;;;;;;8.05;4.00;;;15.50;99.90;;;14.76;79.77;102059.38;2565744;30;138483;-39
2021/08/25 07:15:40;;;;;;;7.85;3.60;;;15.60;99.90;;;14.91;78.00;102058.34;2569128;30;137039;-39
2021/08/25 07:18:08;;;;;;;6.70;3.40;;;15.80;99.90;;;15.10;77.78;102049.22;2569910;30;138350;-39
2021/08/25 07:20:45;;;;;;;7.72;3.47;;;16.00;99.90;;;15.25;75.73;102048.16;2569479;30;138406;-39
2021/08/25 07:23:13;;;;;;;8.32;3.70;;;16.10;99.90;;;15.35;74.50;102047.72;2568404;30;138652;-39
2021/08/25 07:25:42;;;;;;;7.65;3.28;;;16.20;99.90;;;15.45;71.73;102047.25;2569984;30;137478;-39
2021/08/25 07:28:10;;;;;;;7.72;3.40;;;16.30;99.90;;;15.62;71.59;102051.22;2569365;30;138723;-39
2021/08/25 07:30:38;;;;;;;6.40;3.05;;;16.40;99.90;;;15.73;74.52;102037.88;2569961;30;136792;-39
2021/08/25 07:33:12;;;;;;;8.55;3.45;;;16.60;99.90;;;15.86;71.61;102039.72;2569484;30;138246;-39
2021/08/25 07:35:41;;;;;;;6.60;3.30;;;16.70;99.90;;;15.92;68.47;102049.88;2569743;30;136989;-39
2021/08/25 07:38:08;;;;;;;6.63;3.05;;;16.80;99.90;;;16.07;71.20;102046.84;2569205;30;138892;-40
2021/08/25 07:40:36;;;;;;;7.10;3.08;;;16.90;99.90;;;16.19;70.34;102047.00;2567750;30;136882;-39
2021/08/25 07:43:05;;;;;;;8.07;3.70;;;17.00;99.90;;;16.32;71.16;102037.81;2569409;30;139282;-39
2021/08/25 07:45:35;;;;;;;8.30;3.22;;;17.20;99.90;;;16.52;69.81;102044.03;2568799;30;137225;-39
2021/08/25 07:48:04;;;;;;;6.55;3.22;;;17.30;99.90;;;16.54;67.96;102041.88;2568701;30;137372;-39
2021/08/25 07:50:32;;;;;;;8.48;3.65;;;17.40;99.90;;;16.61;66.80;102041.84;2568754;30;137326;-39
2021/08/25 07:53:01;;;;;;;6.65;3.35;;;17.40;99.90;;;16.78;68.26;102044.88;2570586;30;138334;-40
2021/08/25 07:55:28;;;;;;;7.50;3.67;;;17.60;99.90;;;16.91;69.33;102051.34;2566262;30;137564;-39
2021/08/25 07:57:56;;;;;;;;;;;17.60;99.90;;;17.02;67.09;102039.63;2568535;30;138159;-39
2021/08/25 08:00:23;;;;;;;7.03;3.45;;;17.80;99.90;;;17.03;68.83;102045.97;2568185;30;136776;-39
2021/08/25 08:02:51;;;;;;;6.13;3.28;;;17.90;99.90;;;17.06;68.81;102035.34;2571423;30;138394;-39
2021/08/25 08:05:19;;;;;;;7.13;3.42;;;17.90;99.90;;;17.21;70.64;102036.88;2568112;30;137005;-39
2021/08/25 08:07:47;;;;;;;6.55;3.13;;;18.00;99.90;;;17.22;68.05;102033.91;2568163;30;137234;-39
2021/08/25 08:10:15;;;;;;;10.30;3.67;;;18.00;99.90;;;17.42;69.31;102034.75;2567836;30;137710;-39
2021/08/25 08:12:42;;;;;;;;;;;18.20;99.90;;;17.40;64.96;102035.84;2568603;30;138348;-39
2021/08/25 08:15:12;;;;;;;5.95;3.15;;;18.20;99.90;;;17.49;65.99;102030.00;2569605;30;137125;-39
2021/08/25 08:17:44;;;;;;;6.38;3.33;;;18.30;99.90;;;17.62;67.02;102032.63;2568964;30;138372;-39
2021/08/25 08:20:14;;;;;;;7.10;3.42;;;18.40;99.90;;;17.76;66.74;102035.19;2569047;30;137463;-39
2021/08/25 08:22:42;;;;;;;6.57;2.92;;;18.50;99.90;;;17.91;67.65;102027.38;2566269;30;138512;-39
2021/08/25 08:25:10;;;;;;;5.72;2.90;;;18.60;99.90;;;18.00;65.39;102025.13;2570522;30;137295;-40
2021/08/25 08:27:37;;;;;;;5.47;2.97;;;18.70;99.90;;;17.97;63.83;102020.09;2569693;30;138422;-39
2021/08/25 08:30:06;;;;;;;7.82;3.47;;;18.80;99.90;;;18.09;64.19;102021.00;2569895;30;138453;-39
2021/08/25 08:32:34;;;;;;;6.78;3.08;;;18.90;99.90;;;18.27;62.22;102027.53;2570120;30;137247;-39
2021/08/25 08:35:02;;;;;;;5.40;2.97;;;18.90;99.90;;;18.30;61.81;102017.94;2568990;30;136911;-39
2021/08/25 08:37:31;;;;;;;6.68;3.05;;;19.10;99.90;;;18.36;63.47;102017.84;2565837;30;138451;-39
2021/08/25 08:39:58;;;;;;;5.88;2.72;;;19.20;99.90;;;18.53;63.73;102020.75;2568853;30;137040;-39
2021/08/25 08:42:34;;;;;;;6.75;2.65;;;19.30;99.90;;;18.71;62.47;102019.00;2568448;30;137227;-39
2021/08/25 08:45:04;;;;;;;5.70;2.72;;;19.40;99.90;;;18.91;63.92;102017.81;2568957;30;137513;-39
2021/08/25 08:47:32;;;;;;;5.88;2.70;;;19.60;99.90;;;18.88;59.28;102015.53;2568566;30;139184;-39
2021/08/25 08:50:01;;;;;;;9.77;2.97;;;19.70;99.90;;;18.96;61.78;102012.41;2569666;30;137296;-39
2021/08/25 08:52:29;;;;;;;5.40;2.72;;;19.70;99.90;;;19.14;62.01;102022.50;2567273;30;138359;-39
2021/08/25 08:54:57;;;;;;;6.90;2.38;;;19.80;99.90;;;19.25;60.74;102010.63;2571745;30;138465;-39
2021/08/25 08:57:25;;;;;;;5.93;2.63;;;20.00;99.90;;;19.43;59.64;102011.53;2569937;30;138435;-40
2021/08/25 08:59:53;;;;;;;5.78;2.40;;;20.10;99.90;;;19.59;57.64;102012.69;2570867;30;138859;-42
2021/08/25 09:02:45;;;;;;;5.72;2.53;;;20.30;99.90;;;19.65;55.80;102013.66;2567061;30;137492;-41
2021/08/25 09:05:20;;;;;;;5.50;2.55;;;20.40;99.90;;;19.78;54.62;102007.84;2567437;30;137035;-43
2021/08/25 09:07:50;;;;;;;5.25;2.28;;;20.50;99.90;;;19.83;55.25;101999.63;2568129;30;136751;-41
2021/08/25 09:10:27;;;;;;;5.50;2.17;;;20.60;99.90;;;19.84;56.00;102012.41;2566601;30;136991;-42
2021/08/25 09:13:07;;;;;;;6.43;2.20;;;20.60;99.90;;;19.91;54.94;102012.28;2567857;30;138466;-41
2021/08/25 09:15:42;;;;;;;5.72;2.47;;;20.60;99.90;;;20.09;53.64;102010.38;2566893;30;136732;-43
2021/08/25 09:18:14;;;;;;;7.50;3.00;;;20.70;99.90;;;20.17;52.62;102010.00;2566615;30;138646;-41
2021/08/25 09:20:49;;;;;;;5.28;2.40;;;20.90;99.90;;;20.24;52.63;102012.59;2567935;30;137535;-41
2021/08/25 09:23:26;;;;;;;5.35;2.40;;;20.90;99.90;;;20.24;52.75;102005.13;2568672;30;138474;-41
2021/08/25 09:26:00;;;;;;;6.00;2.72;;;21.00;99.90;;;20.33;52.99;102002.81;2567515;30;138489;-41
2021/08/25 09:28:37;;;;;;;6.57;2.67;;;21.10;99.90;;;20.32;47.57;102005.81;2568386;30;137879;-43
2021/08/25 09:31:14;;;;;;;6.78;2.95;;;21.20;99.40;;;20.43;48.89;102002.16;2566675;30;136974;-41
2021/08/25 09:33:47;;;;;;;5.13;2.65;;;21.20;99.90;;;20.51;50.02;101996.19;2566818;30;139100;-41
2021/08/25 09:36:18;;;;;;;7.22;2.45;;;21.30;99.90;;;20.38;46.88;101994.56;2567021;30;136885;-41
2021/08/25 09:38:57;;;;;;;4.57;2.10;;;21.20;98.50;;;20.44;49.07;101989.97;2567291;30;138050;-41
2021/08/25 09:41:25;;;;;;;7.30;2.50;;;21.20;99.70;;;20.40;49.50;101984.06;2566917;30;137082;-39
2021/08/25 09:43:53;;;;;;;6.72;2.63;;;21.30;99.90;;;20.35;49.79;101978.47;2568950;30;136954;-41
2021/08/25 09:46:26;;;;;;;6.80;2.40;;;21.20;99.90;;;20.39;51.16;101974.09;2567356;30;137745;-41
2021/08/25 09:48:59;;;;;;;4.85;2.35;;;21.20;99.90;;;20.49;51.75;101980.88;2566021;30;138660;-41
2021/08/25 09:51:39;;;;;;;7.07;2.67;;;21.30;99.90;;;20.63;48.95;101976.69;2567111;30;137688;-41
2021/08/25 09:54:15;;;;;;;6.88;2.70;;;21.40;99.90;;;20.47;49.67;101969.22;2565275;30;137204;-40
2021/08/25 09:56:44;;;;;;;5.90;2.60;;;21.40;99.90;;;20.48;46.35;101962.56;2569537;30;136890;-42
2021/08/25 09:59:13;;;;;;;6.47;2.47;;;21.40;97.40;;;20.59;47.89;101967.22;2567312;30;137296;-41
2021/08/25 10:01:43;;;;;;;5.13;2.42;;;21.40;98.70;;;20.78;46.83;101964.16;2567240;30;137396;-41
2021/08/25 10:04:16;;;;;;;6.18;2.50;;;21.50;97.80;;;20.97;48.45;101968.34;2567573;30;138251;-41
2021/08/25 10:06:50;;;;;;;5.57;2.30;;;21.70;99.20;;;21.12;47.76;101964.94;2568016;30;137136;-41
2021/08/25 10:09:18;;;;;;;6.47;2.42;;;21.80;98.80;;;21.22;47.05;101957.88;2569461;30;137500;-42
2021/08/25 10:11:59;;;;;;;6.57;2.85;;;21.90;98.40;;;21.17;45.58;101957.78;2566705;30;138153;-41
2021/08/25 10:14:31;;;;;;;5.25;2.55;;;22.00;96.60;;;20.96;42.43;101958.34;2567688;30;138403;-41
2021/08/25 10:16:58;;;;;;;5.03;2.20;;;22.00;94.10;;;20.87;44.63;101948.81;2567974;30;136868;-41
2021/08/25 10:19:37;;;;;;;6.90;2.65;;;21.90;94.60;;;20.94;46.36;101951.38;2568175;30;137835;-43
2021/08/25 10:22:14;;;;;;;5.03;2.38;;;21.90;96.70;;;21.01;45.26;101934.56;2568860;30;137694;-41
2021/08/25 10:24:53;;;;;;;7.10;2.65;;;21.90;95.70;;;21.21;44.84;101931.19;2567373;30;137755;-41